createdAt,value
2024-03-03T00:02:00.588Z,63.70
2024-03-03T00:04:27.275Z,63.96
2024-03-03T00:06:53.787Z,63.81
2024-03-03T00:09:21.973Z,63.71
2024-03-03T00:11:48.498Z,64.22
2024-03-03T00:14:15.687Z,64.08
2024-03-03T00:16:43.068Z,63.92
2024-03-03T00:19:10.150Z,63.90
2024-03-03T00:21:36.681Z,63.85
2024-03-03T00:24:03.541Z,64.47
2024-03-03T00:26:32.119Z,64.36
2024-03-03T00:28:58.633Z,64.33
2024-03-03T00:31:25.216Z,64.36
2024-03-03T00:33:51.795Z,64.21
2024-03-03T00:36:18.299Z,64.37
2024-03-03T00:38:44.845Z,64.43
2024-03-03T00:41:11.960Z,64.24
2024-03-03T00:43:38.679Z,64.34
2024-03-03T00:46:06.454Z,64.33
2024-03-03T00:48:33.014Z,64.34
2024-03-03T00:50:59.434Z,64.56
2024-03-03T00:53:26.627Z,64.82
2024-03-03T00:55:53.431Z,64.68
2024-03-03T00:58:21.407Z,64.92
2024-03-03T01:00:47.963Z,64.96
2024-03-03T01:03:14.901Z,64.64
2024-03-03T01:05:41.360Z,64.40
2024-03-03T01:08:07.863Z,64.66
2024-03-03T01:10:34.414Z,64.95
2024-03-03T01:13:01.182Z,64.43
2024-03-03T01:15:27.650Z,64.72
2024-03-03T01:17:54.242Z,64.77
2024-03-03T01:20:20.722Z,65.08
2024-03-03T01:22:47.277Z,65.47
2024-03-03T01:25:13.876Z,65.78
2024-03-03T01:27:40.434Z,65.68
2024-03-03T01:30:07.459Z,65.91
2024-03-03T01:32:34.281Z,65.98
2024-03-03T01:35:00.850Z,66.61
2024-03-03T01:37:27.420Z,66.33
2024-03-03T01:39:54.752Z,66.93
2024-03-03T01:42:21.340Z,67.56
2024-03-03T01:44:48.262Z,67.70
2024-03-03T01:47:15.106Z,68.17
2024-03-03T01:49:46.251Z,67.67
2024-03-03T01:52:13.272Z,67.46
2024-03-03T01:54:39.951Z,67.83
2024-03-03T01:57:12.968Z,68.49
2024-03-03T01:59:41.606Z,68.60
2024-03-03T02:02:08.282Z,68.72
2024-03-03T02:04:35.854Z,68.98
2024-03-03T02:07:02.980Z,69.56
2024-03-03T02:09:29.527Z,69.99
2024-03-03T02:11:57.222Z,70.11
2024-03-03T02:14:23.698Z,69.66
2024-03-03T02:16:50.256Z,69.68
2024-03-03T02:19:18.440Z,69.49
2024-03-03T02:21:45.444Z,69.00
2024-03-03T02:24:12.026Z,68.95
2024-03-03T02:26:38.613Z,69.38
2024-03-03T02:29:06.319Z,69.37
2024-03-03T02:31:33.717Z,68.77
2024-03-03T02:34:00.360Z,69.30
2024-03-03T02:36:27.025Z,69.40
2024-03-03T02:38:53.714Z,69.24
2024-03-03T02:41:20.694Z,68.93
2024-03-03T02:43:47.281Z,69.08
2024-03-03T02:46:14.972Z,69.26
2024-03-03T02:48:41.916Z,69.01
2024-03-03T02:51:08.460Z,69.76
2024-03-03T02:53:35.078Z,70.11
2024-03-03T02:56:01.677Z,70.72
2024-03-03T02:58:29.725Z,70.47
2024-03-03T03:00:56.391Z,70.09
2024-03-03T03:03:22.961Z,70.10
2024-03-03T03:05:49.500Z,69.51
2024-03-03T03:08:15.991Z,70.05
2024-03-03T03:10:42.565Z,70.15
2024-03-03T03:13:09.180Z,70.72
2024-03-03T03:15:37.426Z,70.83
2024-03-03T03:18:07.769Z,70.03
2024-03-03T03:20:35.503Z,69.54
2024-03-03T03:23:02.100Z,70.26
2024-03-03T03:25:28.643Z,70.32
2024-03-03T03:27:55.153Z,70.36
2024-03-03T03:30:21.931Z,70.70
2024-03-03T03:32:48.380Z,70.15
2024-03-03T03:35:14.981Z,70.75
2024-03-03T03:37:41.570Z,70.65
2024-03-03T03:40:11.284Z,70.72
2024-03-03T03:42:38.197Z,70.82
2024-03-03T03:45:05.228Z,70.61
2024-03-03T03:47:35.014Z,70.20
2024-03-03T03:50:01.585Z,70.67
2024-03-03T03:52:29.015Z,71.74
2024-03-03T03:54:55.574Z,71.39
2024-03-03T03:57:22.186Z,71.21
2024-03-03T03:59:48.605Z,71.01
2024-03-03T04:02:15.068Z,71.02
2024-03-03T04:04:41.572Z,71.14
2024-03-03T04:07:08.213Z,70.90
2024-03-03T04:09:34.909Z,71.34
2024-03-03T04:12:01.442Z,71.22
2024-03-03T04:14:28.041Z,71.04
2024-03-03T04:16:54.508Z,71.24
2024-03-03T04:19:21.019Z,71.70
2024-03-03T04:21:47.677Z,71.13
2024-03-03T04:24:15.069Z,71.58
2024-03-03T04:26:43.374Z,72.19
2024-03-03T04:29:09.827Z,71.63
2024-03-03T04:31:43.809Z,72.01
2024-03-03T04:34:11.299Z,71.37
2024-03-03T04:36:38.314Z,71.52
2024-03-03T04:39:05.457Z,71.41
2024-03-03T04:41:32.267Z,72.08
2024-03-03T04:43:58.741Z,71.99
2024-03-03T04:46:25.294Z,71.91
2024-03-03T04:48:51.815Z,72.33
2024-03-03T04:51:18.837Z,71.81
2024-03-03T04:53:45.850Z,71.55
2024-03-03T04:56:12.308Z,71.42
2024-03-03T04:58:39.003Z,71.03
2024-03-03T05:01:05.656Z,71.04
2024-03-03T05:03:32.157Z,70.92
2024-03-03T05:05:58.639Z,71.12
2024-03-03T05:08:25.133Z,70.50
2024-03-03T05:10:52.139Z,71.15
2024-03-03T05:13:18.727Z,71.29
2024-03-03T05:15:45.340Z,71.49
2024-03-03T05:18:11.810Z,70.54
2024-03-03T05:20:38.596Z,71.09
2024-03-03T05:23:05.191Z,71.34
2024-03-03T05:25:31.656Z,71.29
2024-03-03T05:27:58.148Z,71.34
2024-03-03T05:30:24.822Z,71.13
2024-03-03T05:32:52.292Z,71.21
2024-03-03T05:35:18.913Z,71.31
2024-03-03T05:37:45.360Z,70.96
2024-03-03T05:40:12.094Z,71.16
2024-03-03T05:42:38.780Z,71.36
2024-03-03T05:45:06.861Z,72.03
2024-03-03T05:47:33.421Z,71.80
2024-03-03T05:50:00.005Z,71.99
2024-03-03T05:52:26.580Z,72.44
2024-03-03T05:54:53.280Z,71.73
2024-03-03T05:57:19.724Z,71.74
2024-03-03T05:59:46.447Z,71.65
2024-03-03T06:02:13.004Z,71.51
2024-03-03T06:04:39.514Z,71.31
2024-03-03T06:07:06.076Z,71.61
2024-03-03T06:09:32.751Z,71.87
2024-03-03T06:12:03.732Z,71.82
2024-03-03T06:14:30.203Z,71.99
2024-03-03T06:16:57.357Z,71.43
2024-03-03T06:19:23.985Z,71.11
2024-03-03T06:21:51.961Z,71.26
2024-03-03T06:24:19.567Z,71.21
2024-03-03T06:26:46.554Z,71.47
2024-03-03T06:29:13.143Z,71.85
2024-03-03T06:31:45.111Z,71.84
2024-03-03T06:34:11.779Z,71.84
2024-03-03T06:36:38.626Z,71.99
2024-03-03T06:39:05.995Z,72.24
2024-03-03T06:41:32.522Z,72.03
2024-03-03T06:43:59.055Z,70.76
2024-03-03T06:46:25.674Z,70.81
2024-03-03T06:48:52.262Z,70.94
2024-03-03T06:51:18.777Z,71.95
2024-03-03T06:53:45.247Z,71.61
2024-03-03T06:56:16.256Z,70.78
2024-03-03T06:58:44.416Z,71.38
2024-03-03T07:01:11.689Z,69.58
2024-03-03T07:04:07.026Z,69.22
2024-03-03T07:06:34.907Z,69.01
2024-03-03T07:09:01.914Z,66.09
2024-03-03T07:11:28.540Z,67.78
2024-03-03T07:13:55.148Z,66.64
2024-03-03T07:16:21.794Z,67.00
2024-03-03T07:18:48.383Z,66.73
2024-03-03T07:21:14.983Z,67.01
2024-03-03T07:23:41.741Z,67.19
2024-03-03T07:26:08.365Z,67.58
2024-03-03T07:28:34.879Z,66.97
2024-03-03T07:31:01.458Z,67.13
2024-03-03T07:33:28.220Z,66.89
2024-03-03T07:35:54.957Z,66.36
2024-03-03T07:38:21.706Z,64.29
2024-03-03T07:40:48.217Z,63.51
2024-03-03T07:43:15.880Z,64.59
2024-03-03T07:45:42.481Z,64.26
2024-03-03T07:48:09.095Z,64.70
2024-03-03T07:50:35.581Z,64.57
2024-03-03T07:53:02.123Z,64.98
2024-03-03T07:55:30.662Z,64.58
2024-03-03T07:57:57.656Z,64.15
2024-03-03T08:00:24.271Z,64.32
2024-03-03T08:02:50.762Z,64.09
2024-03-03T08:05:17.243Z,63.41
2024-03-03T08:07:43.748Z,62.19
2024-03-03T08:10:10.428Z,62.12
2024-03-03T08:12:36.969Z,61.72
2024-03-03T08:15:03.660Z,61.15
2024-03-03T08:17:30.299Z,61.24
2024-03-03T08:19:56.923Z,61.07
2024-03-03T08:22:23.531Z,61.54
2024-03-03T08:24:50.028Z,61.48
2024-03-03T08:27:16.542Z,61.50
2024-03-03T08:29:43.183Z,60.98
2024-03-03T08:32:09.617Z,61.27
2024-03-03T08:34:36.108Z,60.67
2024-03-03T08:37:02.630Z,60.53
2024-03-03T08:39:29.626Z,60.43
2024-03-03T08:41:56.257Z,60.02
2024-03-03T08:44:24.125Z,60.35
2024-03-03T08:46:52.248Z,59.70
2024-03-03T08:49:19.178Z,60.21
2024-03-03T08:51:45.827Z,60.25
2024-03-03T08:54:12.539Z,59.97
2024-03-03T08:56:39.108Z,59.78
2024-03-03T08:59:05.739Z,59.80
2024-03-03T09:01:32.384Z,60.07
2024-03-03T09:03:58.984Z,60.17
2024-03-03T09:06:25.483Z,59.18
2024-03-03T09:08:52.187Z,58.56
2024-03-03T09:11:18.706Z,58.17
2024-03-03T09:13:45.249Z,57.61
2024-03-03T09:16:14.777Z,58.00
2024-03-03T09:18:41.584Z,57.41
2024-03-03T09:21:09.169Z,57.20
2024-03-03T09:23:36.131Z,56.64
2024-03-03T09:26:02.806Z,55.23
2024-03-03T09:28:29.447Z,54.86
2024-03-03T09:30:56.121Z,54.13
2024-03-03T09:33:22.703Z,53.77
2024-03-03T09:35:49.207Z,53.23
2024-03-03T09:38:15.739Z,52.98
2024-03-03T09:40:44.418Z,52.80
2024-03-03T09:43:15.899Z,52.52
2024-03-03T09:45:42.400Z,52.09
2024-03-03T09:48:09.723Z,51.17
2024-03-03T09:50:36.487Z,50.31
2024-03-03T09:53:04.045Z,50.83
2024-03-03T09:55:31.368Z,50.27
2024-03-03T09:57:58.302Z,49.67
2024-03-03T10:00:27.390Z,49.45
2024-03-03T10:02:55.323Z,49.23
2024-03-03T10:05:23.958Z,49.00
2024-03-03T10:07:56.326Z,48.85
2024-03-03T10:10:28.287Z,48.07
2024-03-03T10:12:56.209Z,47.66
2024-03-03T10:15:24.082Z,46.29
2024-03-03T10:17:51.696Z,43.31
2024-03-03T10:20:18.345Z,44.25
2024-03-03T10:22:45.455Z,43.84
2024-03-03T10:25:14.187Z,43.42
2024-03-03T10:27:48.440Z,42.01
2024-03-03T10:30:16.285Z,43.02
2024-03-03T10:32:44.285Z,41.26
2024-03-03T10:35:19.870Z,40.26
2024-03-03T10:37:53.242Z,40.38
2024-03-03T10:40:23.251Z,40.55
2024-03-03T10:42:49.979Z,39.85
2024-03-03T10:45:16.521Z,38.80
2024-03-03T10:47:43.527Z,38.61
2024-03-03T10:50:17.504Z,38.82
2024-03-03T10:52:44.832Z,38.95
2024-03-03T10:55:12.838Z,38.94
2024-03-03T10:57:40.264Z,38.71
2024-03-03T11:00:12.899Z,38.26
2024-03-03T11:02:40.617Z,39.39
2024-03-03T11:05:07.757Z,38.04
2024-03-03T11:07:38.051Z,37.92
2024-03-03T11:10:05.892Z,40.34
2024-03-03T11:12:37.460Z,41.18
2024-03-03T11:15:06.339Z,38.04
2024-03-03T11:17:36.590Z,36.02
2024-03-03T11:20:04.958Z,36.10
2024-03-03T11:22:38.427Z,36.45
2024-03-03T11:25:07.341Z,36.63
2024-03-03T11:27:40.458Z,36.99
2024-03-03T11:30:11.298Z,37.33
2024-03-03T11:32:40.386Z,35.80
2024-03-03T11:35:08.262Z,33.82
2024-03-03T11:37:34.815Z,34.16
2024-03-03T11:40:04.023Z,34.67
2024-03-03T11:42:33.705Z,32.89
2024-03-03T11:45:01.297Z,31.79
2024-03-03T11:47:33.056Z,31.72
2024-03-03T11:50:00.439Z,30.55
2024-03-03T11:52:44.160Z,30.50
2024-03-03T11:55:29.293Z,26.75
2024-03-03T11:57:59.943Z,27.84
2024-03-03T12:00:28.859Z,28.54
2024-03-03T12:02:57.501Z,28.40
2024-03-03T12:05:25.728Z,28.60
2024-03-03T12:07:54.124Z,28.05
2024-03-03T12:10:32.709Z,27.35
2024-03-03T12:13:02.482Z,27.66
2024-03-03T12:15:30.453Z,28.75
2024-03-03T12:17:58.794Z,30.67
2024-03-03T12:20:28.185Z,29.19
2024-03-03T12:22:55.657Z,29.36
2024-03-03T12:25:24.970Z,28.59
2024-03-03T12:27:59.111Z,28.87
2024-03-03T12:30:31.914Z,29.90
2024-03-03T12:32:59.615Z,30.30
2024-03-03T12:35:26.345Z,30.39
2024-03-03T12:37:54.579Z,31.53
2024-03-03T12:40:21.731Z,30.75
2024-03-03T12:42:52.018Z,29.26
2024-03-03T12:45:19.312Z,27.83
2024-03-03T12:47:45.900Z,28.41
2024-03-03T12:50:13.802Z,27.21
2024-03-03T12:52:42.061Z,26.96
2024-03-03T12:55:12.229Z,27.16
2024-03-03T12:57:40.721Z,26.53
2024-03-03T13:00:14.544Z,26.98
2024-03-03T13:02:43.674Z,26.86
2024-03-03T13:05:16.258Z,26.11
2024-03-03T13:07:51.761Z,26.37
2024-03-03T13:10:22.880Z,25.59
2024-03-03T13:12:54.208Z,26.01
2024-03-03T13:15:22.362Z,25.83
2024-03-03T13:18:17.244Z,25.66
2024-03-03T13:20:44.096Z,25.40
2024-03-03T13:23:20.474Z,25.87
2024-03-03T13:25:47.620Z,25.49
2024-03-03T13:28:16.018Z,26.54
2024-03-03T13:30:57.721Z,26.26
2024-03-03T13:33:24.954Z,26.25
2024-03-03T13:35:52.226Z,25.95
2024-03-03T13:38:18.944Z,24.44
2024-03-03T13:40:45.720Z,25.12
2024-03-03T13:43:12.370Z,24.24
2024-03-03T13:45:39.196Z,24.82
2024-03-03T13:48:11.422Z,24.54
2024-03-03T13:50:37.926Z,24.47
2024-03-03T13:53:05.270Z,24.33
2024-03-03T13:55:31.783Z,24.68
2024-03-03T13:57:58.432Z,24.67
2024-03-03T14:00:25.008Z,24.73
2024-03-03T14:02:52.301Z,25.88
2024-03-03T14:05:18.984Z,25.49
2024-03-03T14:07:45.655Z,24.54
2024-03-03T14:10:13.502Z,24.71
2024-03-03T14:12:40.076Z,24.62
2024-03-03T14:15:07.054Z,24.72
2024-03-03T14:17:34.416Z,25.80
2024-03-03T14:20:01.389Z,25.03
2024-03-03T14:22:27.987Z,25.21
2024-03-03T14:24:54.833Z,25.00
2024-03-03T14:27:21.353Z,24.60
2024-03-03T14:29:48.002Z,25.65
2024-03-03T14:32:15.029Z,24.42
2024-03-03T14:34:41.447Z,24.30
2024-03-03T14:37:08.828Z,23.40
2024-03-03T14:39:35.405Z,23.76
2024-03-03T14:42:01.827Z,24.05
2024-03-03T14:44:28.564Z,23.56
2024-03-03T14:46:55.190Z,23.24
2024-03-03T14:49:22.007Z,24.04
2024-03-03T14:51:48.594Z,23.86
2024-03-03T14:54:15.193Z,24.06
2024-03-03T14:56:41.840Z,23.12
2024-03-03T14:59:08.361Z,23.41
2024-03-03T15:01:34.923Z,23.54
2024-03-03T15:04:01.493Z,23.80
2024-03-03T15:06:28.017Z,23.03
2024-03-03T15:08:54.887Z,23.21
2024-03-03T15:11:21.341Z,23.38
2024-03-03T15:13:47.817Z,24.08
2024-03-03T15:16:14.373Z,23.99
2024-03-03T15:18:40.926Z,23.74
2024-03-03T15:21:07.402Z,23.96
2024-03-03T15:23:34.110Z,22.93
2024-03-03T15:26:00.751Z,23.75
2024-03-03T15:28:27.306Z,23.74
2024-03-03T15:30:54.173Z,23.87
2024-03-03T15:33:20.822Z,23.08
2024-03-03T15:35:48.230Z,23.87
2024-03-03T15:38:14.673Z,23.39
2024-03-03T15:40:41.273Z,24.71
2024-03-03T15:43:07.746Z,23.91
2024-03-03T15:45:36.757Z,23.92
2024-03-03T15:48:05.374Z,23.54
2024-03-03T15:50:31.998Z,24.21
2024-03-03T15:52:58.769Z,24.08
2024-03-03T15:55:25.388Z,23.63
2024-03-03T15:57:52.092Z,24.63
2024-03-03T16:00:18.834Z,24.29
2024-03-03T16:02:45.317Z,24.76
2024-03-03T16:05:11.991Z,25.37
2024-03-03T16:07:39.337Z,24.64
2024-03-03T16:10:07.887Z,24.95
2024-03-03T16:12:35.061Z,25.61
2024-03-03T16:15:02.081Z,25.29
2024-03-03T16:17:28.690Z,26.03
2024-03-03T16:19:55.489Z,26.00
2024-03-03T16:22:22.073Z,26.12
2024-03-03T16:24:48.840Z,26.51
2024-03-03T16:27:15.424Z,26.11
2024-03-03T16:29:41.884Z,26.67
2024-03-03T16:32:08.745Z,27.21
2024-03-03T16:34:35.408Z,27.93
2024-03-03T16:37:02.080Z,27.46
2024-03-03T16:39:28.671Z,27.64
2024-03-03T16:41:55.380Z,27.51
2024-03-03T16:44:23.521Z,29.33
2024-03-03T16:46:50.215Z,30.30
2024-03-03T16:49:16.738Z,30.56
2024-03-03T16:51:43.209Z,31.29
2024-03-03T16:54:09.711Z,32.44
2024-03-03T16:56:36.985Z,33.42
2024-03-03T16:59:03.741Z,33.15
2024-03-03T17:01:30.313Z,33.08
2024-03-03T17:03:56.897Z,34.11
2024-03-03T17:06:23.991Z,34.54
2024-03-03T17:08:51.472Z,30.98
2024-03-03T17:11:17.996Z,32.53
2024-03-03T17:13:44.518Z,31.73
2024-03-03T17:16:11.267Z,32.39
2024-03-03T17:18:37.778Z,33.49
2024-03-03T17:21:05.893Z,33.64
2024-03-03T17:23:32.755Z,34.50
2024-03-03T17:25:59.214Z,33.94
2024-03-03T17:28:25.862Z,35.12
2024-03-03T17:30:52.489Z,34.40
2024-03-03T17:33:19.277Z,34.11
2024-03-03T17:35:45.829Z,34.82
2024-03-03T17:38:12.332Z,35.10
2024-03-03T17:40:40.013Z,34.77
2024-03-03T17:43:06.770Z,35.94
2024-03-03T17:45:33.289Z,35.28
2024-03-03T17:47:59.991Z,35.82
2024-03-03T17:50:26.669Z,35.42
2024-03-03T17:52:53.625Z,35.29
2024-03-03T17:55:20.330Z,33.32
2024-03-03T17:57:47.966Z,32.39
2024-03-03T18:00:14.644Z,32.37
2024-03-03T18:02:41.760Z,32.72
2024-03-03T18:05:09.805Z,33.12
2024-03-03T18:07:36.544Z,32.43
2024-03-03T18:10:03.144Z,33.77
2024-03-03T18:12:30.879Z,34.03
2024-03-03T18:14:57.346Z,33.19
2024-03-03T18:17:23.938Z,34.86
2024-03-03T18:19:50.470Z,35.48
2024-03-03T18:22:17.212Z,36.12
2024-03-03T18:24:44.124Z,36.13
2024-03-03T18:27:10.623Z,35.72
2024-03-03T18:29:37.661Z,36.07
2024-03-03T18:32:04.565Z,37.92
2024-03-03T18:34:31.706Z,38.30
2024-03-03T18:36:58.651Z,41.07
2024-03-03T18:39:25.310Z,41.52
2024-03-03T18:41:52.472Z,42.21
2024-03-03T18:44:19.742Z,42.40
2024-03-03T18:46:46.443Z,42.65
2024-03-03T18:49:13.041Z,43.53
2024-03-03T18:51:39.546Z,43.63
2024-03-03T18:54:06.193Z,43.62
2024-03-03T18:56:32.681Z,43.90
2024-03-03T18:58:59.093Z,43.75
2024-03-03T19:01:25.727Z,43.54
2024-03-03T19:03:52.280Z,43.56
2024-03-03T19:06:18.838Z,44.67
2024-03-03T19:08:45.356Z,44.98
2024-03-03T19:11:12.010Z,44.65
2024-03-03T19:13:38.710Z,44.80
2024-03-03T19:16:07.346Z,45.10
2024-03-03T19:18:33.912Z,45.26
2024-03-03T19:21:00.851Z,45.27
2024-03-03T19:23:27.503Z,45.05
2024-03-03T19:25:53.998Z,45.15
2024-03-03T19:28:20.896Z,45.17
2024-03-03T19:30:48.214Z,44.23
2024-03-03T19:33:14.668Z,43.77
2024-03-03T19:35:42.526Z,42.60
2024-03-03T19:38:09.080Z,43.22
2024-03-03T19:40:35.691Z,42.76
2024-03-03T19:43:03.057Z,42.33
2024-03-03T19:45:29.662Z,42.20
2024-03-03T19:47:56.193Z,42.41
2024-03-03T19:50:22.688Z,43.20
2024-03-03T19:52:49.176Z,43.62
2024-03-03T19:55:15.698Z,44.25
2024-03-03T19:57:42.356Z,44.83
2024-03-03T20:00:15.773Z,45.15
2024-03-03T20:02:45.753Z,45.35
2024-03-03T20:05:12.218Z,46.15
2024-03-03T20:07:38.839Z,46.02
2024-03-03T20:10:08.044Z,46.44
2024-03-03T20:12:34.620Z,46.65
2024-03-03T20:15:03.074Z,47.13
2024-03-03T20:17:30.125Z,47.14
2024-03-03T20:19:57.364Z,47.58
2024-03-03T20:22:24.268Z,47.83
2024-03-03T20:24:50.900Z,48.06
2024-03-03T20:27:17.443Z,48.26
2024-03-03T20:29:44.017Z,48.37
2024-03-03T20:32:10.549Z,48.17
2024-03-03T20:34:37.079Z,49.06
2024-03-03T20:37:03.628Z,49.09
2024-03-03T20:39:30.961Z,49.40
2024-03-03T20:41:57.432Z,50.14
2024-03-03T20:44:23.949Z,50.93
2024-03-03T20:46:51.408Z,50.94
2024-03-03T20:49:21.339Z,51.75
2024-03-03T20:51:47.905Z,51.70
2024-03-03T20:54:16.278Z,53.31
2024-03-03T20:56:42.942Z,53.70
2024-03-03T20:59:10.869Z,53.69
2024-03-03T21:01:38.034Z,53.61
2024-03-03T21:04:04.969Z,54.28
2024-03-03T21:06:31.517Z,53.86
2024-03-03T21:08:58.734Z,54.72
2024-03-03T21:11:28.220Z,54.42
2024-03-03T21:13:58.781Z,53.81
2024-03-03T21:16:26.069Z,53.85
2024-03-03T21:18:52.639Z,53.19
2024-03-03T21:21:19.208Z,53.53
2024-03-03T21:23:45.770Z,53.21
2024-03-03T21:26:12.326Z,53.03
2024-03-03T21:28:38.851Z,53.64
2024-03-03T21:31:06.286Z,54.03
2024-03-03T21:33:32.906Z,54.86
2024-03-03T21:36:00.054Z,55.35
2024-03-03T21:38:26.668Z,56.04
2024-03-03T21:40:53.420Z,56.38
2024-03-03T21:43:19.999Z,57.05
2024-03-03T21:45:46.629Z,58.01
2024-03-03T21:48:13.537Z,58.30
2024-03-03T21:50:40.717Z,58.29
2024-03-03T21:53:07.321Z,58.09
2024-03-03T21:55:34.232Z,57.74
2024-03-03T21:58:01.098Z,57.42
2024-03-03T22:00:27.720Z,57.67
2024-03-03T22:02:54.289Z,57.97
2024-03-03T22:05:20.738Z,57.95
2024-03-03T22:07:47.311Z,58.23
2024-03-03T22:10:13.830Z,56.53
2024-03-03T22:12:40.623Z,56.76
2024-03-03T22:15:07.635Z,58.73
2024-03-03T22:17:34.784Z,59.59
2024-03-03T22:20:01.419Z,59.05
2024-03-03T22:22:27.940Z,59.29
2024-03-03T22:24:56.301Z,58.76
2024-03-03T22:27:22.895Z,58.81
2024-03-03T22:29:50.547Z,59.04
2024-03-03T22:32:17.035Z,59.08
2024-03-03T22:34:43.971Z,59.27
2024-03-03T22:37:11.168Z,59.63
2024-03-03T22:39:37.862Z,59.71
2024-03-03T22:42:06.035Z,59.66
2024-03-03T22:44:33.684Z,60.41
2024-03-03T22:47:00.668Z,60.06
2024-03-03T22:49:27.735Z,60.15
2024-03-03T22:51:54.407Z,60.64
2024-03-03T22:54:23.931Z,60.01
2024-03-03T22:56:50.424Z,60.45
2024-03-03T22:59:16.971Z,61.28
2024-03-03T23:01:43.618Z,61.78
2024-03-03T23:04:10.488Z,61.77
2024-03-03T23:06:37.010Z,61.74
2024-03-03T23:09:06.223Z,61.60
2024-03-03T23:11:36.434Z,62.11
2024-03-03T23:14:04.867Z,61.82
2024-03-03T23:16:31.385Z,62.06
2024-03-03T23:18:58.002Z,62.14
2024-03-03T23:21:24.480Z,62.87
2024-03-03T23:23:50.900Z,62.43
2024-03-03T23:26:17.452Z,62.70
2024-03-03T23:28:44.216Z,63.07
2024-03-03T23:31:10.800Z,63.32
2024-03-03T23:33:37.246Z,63.55
2024-03-03T23:36:03.966Z,63.73
2024-03-03T23:38:30.386Z,63.81
2024-03-03T23:40:56.878Z,64.19
2024-03-03T23:43:23.439Z,64.23
2024-03-03T23:45:49.971Z,63.89
2024-03-03T23:48:16.550Z,64.06
2024-03-03T23:50:43.177Z,64.05
2024-03-03T23:53:10.019Z,64.09
2024-03-03T23:55:37.319Z,63.85
2024-03-03T23:58:04.181Z,64.35
